createdAt,value
2023-04-16T00:02:41.939Z,99879.75
2023-04-16T00:05:43.485Z,99883.31
2023-04-16T00:08:44.921Z,99877.75
2023-04-16T00:11:46.382Z,99874.25
2023-04-16T00:14:49.102Z,99879.13
2023-04-16T00:17:50.680Z,99872.16
2023-04-16T00:20:52.134Z,99874.13
2023-04-16T00:23:53.613Z,99876.34
2023-04-16T00:26:55.916Z,99876.34
2023-04-16T00:29:57.232Z,99871.44
2023-04-16T00:32:58.789Z,99878.63
2023-04-16T00:36:00.369Z,99882.50
2023-04-16T00:39:02.031Z,99882.06
2023-04-16T00:42:03.593Z,99880.72
2023-04-16T00:45:05.872Z,99888.66
2023-04-16T00:48:07.235Z,99882.41
2023-04-16T00:51:09.067Z,99882.72
2023-04-16T00:54:10.740Z,99883.00
2023-04-16T00:57:14.438Z,99890.84
2023-04-16T01:00:16.295Z,99888.91
2023-04-16T01:03:17.876Z,99891.72
2023-04-16T01:06:19.450Z,99890.22
2023-04-16T01:09:20.913Z,99895.16
2023-04-16T01:12:22.503Z,99887.88
2023-04-16T01:15:23.977Z,99890.72
2023-04-16T01:18:26.233Z,99891.53
2023-04-16T01:21:27.565Z,99890.84
2023-04-16T01:24:29.115Z,99891.09
2023-04-16T01:27:31.173Z,99896.19
2023-04-16T01:30:32.837Z,99899.34
2023-04-16T01:33:44.564Z,99902.09
2023-04-16T01:36:46.835Z,99901.22
2023-04-16T01:39:48.262Z,99903.69
2023-04-16T01:42:49.717Z,99907.41
2023-04-16T01:45:53.773Z,99906.53
2023-04-16T01:48:55.444Z,99912.53
2023-04-16T01:51:56.919Z,99911.25
2023-04-16T01:54:58.401Z,99912.88
2023-04-16T01:57:59.820Z,99918.69
2023-04-16T02:01:05.835Z,99911.88
2023-04-16T02:04:08.208Z,99916.25
2023-04-16T02:07:10.309Z,99914.13
2023-04-16T02:10:11.752Z,99910.84
2023-04-16T02:13:15.570Z,99912.53
2023-04-16T02:16:18.538Z,99910.19
2023-04-16T02:19:28.807Z,99911.28
2023-04-16T02:22:30.514Z,99914.19
2023-04-16T02:25:32.840Z,99921.31
2023-04-16T02:28:34.378Z,99920.72
2023-04-16T02:31:36.193Z,99916.16
2023-04-16T02:34:40.105Z,99924.84
2023-04-16T02:37:41.726Z,99925.44
2023-04-16T02:40:43.810Z,99922.47
2023-04-16T02:43:45.845Z,99928.94
2023-04-16T02:46:47.275Z,99921.09
2023-04-16T02:49:48.786Z,99921.66
2023-04-16T02:52:51.472Z,99915.34
2023-04-16T02:55:54.531Z,99914.50
2023-04-16T02:58:56.306Z,99923.25
2023-04-16T03:01:58.167Z,99916.06
2023-04-16T03:04:59.824Z,99918.28
2023-04-16T03:08:01.253Z,99915.94
2023-04-16T03:11:02.718Z,99922.06
2023-04-16T03:14:04.106Z,99920.31
2023-04-16T03:17:05.697Z,99925.59
2023-04-16T03:20:07.945Z,99917.47
2023-04-16T03:23:09.474Z,99922.03
2023-04-16T03:26:10.935Z,99919.25
2023-04-16T03:29:12.478Z,99924.22
2023-04-16T03:32:13.919Z,99925.53
2023-04-16T03:35:15.850Z,99922.94
2023-04-16T03:38:17.583Z,99924.91
2023-04-16T03:41:19.518Z,99929.03
2023-04-16T03:44:21.317Z,99927.41
2023-04-16T03:47:22.819Z,99926.41
2023-04-16T03:50:27.923Z,99926.66
2023-04-16T03:53:29.827Z,99930.25
2023-04-16T03:56:31.291Z,99925.97
2023-04-16T03:59:32.742Z,99916.50
2023-04-16T04:02:35.058Z,99919.78
2023-04-16T04:05:41.081Z,99926.66
2023-04-16T04:08:44.712Z,99928.47
2023-04-16T04:11:48.265Z,99933.69
2023-04-16T04:14:49.931Z,99931.75
2023-04-16T04:17:51.442Z,99935.16
2023-04-16T04:20:53.038Z,99938.53
2023-04-16T04:23:58.351Z,99944.16
2023-04-16T04:26:59.766Z,99940.03
2023-04-16T04:30:04.241Z,99937.56
2023-04-16T04:33:06.846Z,99943.59
2023-04-16T04:36:08.347Z,99951.56
2023-04-16T04:39:11.623Z,99950.13
2023-04-16T04:42:18.952Z,99951.47
2023-04-16T04:45:20.700Z,99953.44
2023-04-16T04:48:26.445Z,99957.97
2023-04-16T04:51:28.411Z,99961.38
2023-04-16T04:54:30.945Z,99963.16
2023-04-16T04:57:32.377Z,99968.00
2023-04-16T05:00:34.856Z,99963.56
2023-04-16T05:03:36.473Z,99973.59
2023-04-16T05:06:37.947Z,99968.94
2023-04-16T05:09:39.362Z,99975.97
2023-04-16T05:12:40.908Z,99975.22
2023-04-16T05:15:42.467Z,99975.66
2023-04-16T05:18:43.882Z,99978.03
2023-04-16T05:21:45.308Z,99982.00
2023-04-16T05:24:46.724Z,99992.31
2023-04-16T05:27:48.175Z,99990.13
2023-04-16T05:30:49.627Z,100002.38
2023-04-16T05:33:51.058Z,100003.75
2023-04-16T05:36:52.432Z,100003.63
2023-04-16T05:39:54.107Z,100006.78
2023-04-16T05:42:55.582Z,100014.78
2023-04-16T05:45:57.025Z,100016.69
2023-04-16T05:48:58.481Z,100021.63
2023-04-16T05:51:59.928Z,100029.94
2023-04-16T05:55:01.806Z,100036.81
2023-04-16T05:58:06.219Z,100041.31
2023-04-16T06:01:07.654Z,100037.63
2023-04-16T06:04:09.156Z,100039.81
2023-04-16T06:07:10.746Z,100038.19
2023-04-16T06:10:12.188Z,100044.44
2023-04-16T06:13:13.725Z,100056.63
2023-04-16T06:16:15.341Z,100055.50
2023-04-16T06:19:16.862Z,100056.53
2023-04-16T06:22:18.403Z,100054.19
2023-04-16T06:25:19.823Z,100065.38
2023-04-16T06:28:21.465Z,100065.53
2023-04-16T06:31:22.999Z,100071.84
2023-04-16T06:34:24.468Z,100071.19
2023-04-16T06:37:25.879Z,100074.38
2023-04-16T06:40:27.355Z,100069.69
2023-04-16T06:43:29.817Z,100076.63
2023-04-16T06:46:31.845Z,100079.91
2023-04-16T06:49:33.306Z,100080.13
2023-04-16T06:52:34.750Z,100086.50
2023-04-16T06:55:36.242Z,100081.41
2023-04-16T06:58:37.734Z,100092.50
2023-04-16T07:01:39.229Z,100089.66
2023-04-16T07:04:40.658Z,100093.09
2023-04-16T07:07:42.056Z,100085.22
2023-04-16T07:10:43.654Z,100086.34
2023-04-16T07:13:45.163Z,100088.50
2023-04-16T07:16:46.648Z,100091.75
2023-04-16T07:19:48.140Z,100094.53
2023-04-16T07:22:49.686Z,100084.72
2023-04-16T07:25:51.203Z,100088.41
2023-04-16T07:28:52.672Z,100101.41
2023-04-16T07:31:54.160Z,100101.44
2023-04-16T07:34:56.149Z,100101.13
2023-04-16T07:37:57.610Z,100100.88
2023-04-16T07:40:59.113Z,100101.66
2023-04-16T07:44:00.605Z,100102.34
2023-04-16T07:47:03.549Z,100098.41
2023-04-16T07:50:08.038Z,100106.63
2023-04-16T07:53:09.663Z,100103.66
2023-04-16T07:56:11.364Z,100117.41
2023-04-16T07:59:21.719Z,100113.81
2023-04-16T08:02:24.818Z,100114.56
2023-04-16T08:05:26.714Z,100117.28
2023-04-16T08:08:29.027Z,100124.13
2023-04-16T08:11:30.686Z,100123.66
2023-04-16T08:14:32.111Z,100125.34
2023-04-16T08:17:34.425Z,100129.78
2023-04-16T08:20:35.883Z,100130.66
2023-04-16T08:23:37.314Z,100134.22
2023-04-16T08:26:38.798Z,100145.38
2023-04-16T08:29:40.248Z,100139.63
2023-04-16T08:32:42.353Z,100152.13
2023-04-16T08:35:43.814Z,100152.53
2023-04-16T08:38:45.398Z,100152.69
2023-04-16T08:41:47.615Z,100155.75
2023-04-16T08:44:50.292Z,100162.22
2023-04-16T08:47:52.993Z,100168.25
2023-04-16T08:50:55.029Z,100165.38
2023-04-16T08:54:04.209Z,100170.63
2023-04-16T08:57:06.508Z,100174.06
2023-04-16T09:00:08.863Z,100172.66
2023-04-16T09:03:11.170Z,100182.16
2023-04-16T09:06:13.531Z,100179.00
2023-04-16T09:09:16.074Z,100179.00
2023-04-16T09:12:17.555Z,100173.88
2023-04-16T09:15:20.547Z,100185.47
2023-04-16T09:18:22.016Z,100185.09
2023-04-16T09:21:24.095Z,100184.94
2023-04-16T09:24:25.946Z,100179.00
2023-04-16T09:27:28.160Z,100182.47
2023-04-16T09:30:29.760Z,100185.63
2023-04-16T09:33:32.378Z,100186.34
2023-04-16T09:36:36.468Z,100194.91
2023-04-16T09:39:37.999Z,100187.72
2023-04-16T09:42:39.392Z,100191.00
2023-04-16T09:45:54.281Z,100190.63
2023-04-16T09:48:55.807Z,100184.16
2023-04-16T09:51:59.613Z,100180.31
2023-04-16T09:55:01.015Z,100176.75
2023-04-16T09:58:02.474Z,100185.69
2023-04-16T10:01:07.940Z,100196.81
2023-04-16T10:04:09.463Z,100193.41
2023-04-16T10:07:11.057Z,100196.00
2023-04-16T10:10:12.791Z,100191.34
2023-04-16T10:13:17.535Z,100193.28
2023-04-16T10:16:19.094Z,100190.22
2023-04-16T10:19:20.781Z,100192.69
2023-04-16T10:22:22.289Z,100197.41
2023-04-16T10:25:24.342Z,100202.03
2023-04-16T10:28:25.972Z,100206.47
2023-04-16T10:31:28.390Z,100207.38
2023-04-16T10:34:31.244Z,100198.66
2023-04-16T10:37:33.088Z,100198.50
2023-04-16T10:40:35.129Z,100201.72
2023-04-16T10:43:41.129Z,100210.72
2023-04-16T10:46:44.550Z,100203.41
2023-04-16T10:49:48.070Z,100198.72
2023-04-16T10:52:49.478Z,100198.72
2023-04-16T10:55:58.542Z,100195.09
2023-04-16T10:59:00.292Z,100192.94
2023-04-16T11:02:07.456Z,100187.81
2023-04-16T11:05:09.604Z,100195.97
2023-04-16T11:08:14.547Z,100190.69
2023-04-16T11:11:16.368Z,100195.56
2023-04-16T11:14:18.132Z,100198.31
2023-04-16T11:17:21.178Z,100194.63
2023-04-16T11:20:24.866Z,100199.19
2023-04-16T11:23:26.359Z,100200.94
2023-04-16T11:26:29.468Z,100194.94
2023-04-16T11:29:31.001Z,100194.03
2023-04-16T11:32:33.886Z,100193.06
2023-04-16T11:35:35.680Z,100196.25
2023-04-16T11:38:38.284Z,100190.88
2023-04-16T11:41:47.493Z,100191.06
2023-04-16T11:44:56.503Z,100200.53
2023-04-16T11:47:58.039Z,100194.34
2023-04-16T11:50:59.621Z,100191.63
2023-04-16T11:54:02.030Z,100196.50
2023-04-16T11:57:04.556Z,100194.53
2023-04-16T12:00:10.673Z,100195.34
2023-04-16T12:03:15.458Z,100205.00
2023-04-16T12:06:17.006Z,100203.44
2023-04-16T12:09:26.200Z,100202.38
2023-04-16T12:12:32.258Z,100205.53
2023-04-16T12:15:53.343Z,100210.00
2023-04-16T12:19:03.805Z,100201.41
2023-04-16T12:22:05.331Z,100208.38
2023-04-16T12:25:15.424Z,100209.81
2023-04-16T12:28:28.619Z,100216.66
2023-04-16T12:31:38.949Z,100219.28
2023-04-16T12:34:51.538Z,100212.06
2023-04-16T12:37:52.966Z,100219.34
2023-04-16T12:40:57.104Z,100216.19
2023-04-16T12:44:05.018Z,100224.06
2023-04-16T12:47:06.607Z,100216.31
2023-04-16T12:50:08.268Z,100228.50
2023-04-16T12:53:09.712Z,100222.44
2023-04-16T12:56:11.187Z,100223.91
2023-04-16T12:59:12.736Z,100218.78
2023-04-16T13:02:14.344Z,100225.16
2023-04-16T13:05:17.157Z,100223.25
2023-04-16T13:08:18.596Z,100225.69
2023-04-16T13:11:20.497Z,100222.56
2023-04-16T13:14:22.052Z,100217.31
2023-04-16T13:17:23.619Z,100228.81
2023-04-16T13:20:25.261Z,100226.88
2023-04-16T13:23:27.008Z,100227.97
2023-04-16T13:26:28.465Z,100234.72
2023-04-16T13:29:30.081Z,100224.13
2023-04-16T13:32:31.827Z,100235.81
2023-04-16T13:35:33.264Z,100233.22
2023-04-16T13:38:34.662Z,100240.53
2023-04-16T13:41:37.044Z,100244.66
2023-04-16T13:44:38.549Z,100240.94
2023-04-16T13:47:43.653Z,100244.63
2023-04-16T13:50:45.448Z,100242.84
2023-04-16T13:53:46.953Z,100242.28
2023-04-16T13:56:50.165Z,100241.34
2023-04-16T13:59:51.722Z,100237.59
2023-04-16T14:02:53.858Z,100238.44
2023-04-16T14:05:55.364Z,100233.78
2023-04-16T14:08:56.794Z,100234.84
2023-04-16T14:11:58.218Z,100234.72
2023-04-16T14:14:59.767Z,100226.06
2023-04-16T14:18:01.784Z,100233.34
2023-04-16T14:21:03.541Z,100229.22
2023-04-16T14:24:05.452Z,100222.13
2023-04-16T14:27:06.917Z,100228.03
2023-04-16T14:30:08.919Z,100234.91
2023-04-16T14:33:10.563Z,100225.44
2023-04-16T14:36:12.052Z,100229.34
2023-04-16T14:39:13.753Z,100237.47
2023-04-16T14:42:15.391Z,100232.28
2023-04-16T14:45:16.832Z,100228.47
2023-04-16T14:48:18.298Z,100233.28
2023-04-16T14:51:19.799Z,100230.13
2023-04-16T14:54:21.397Z,100232.03
2023-04-16T14:57:23.027Z,100233.97
2023-04-16T15:00:24.508Z,100237.31
2023-04-16T15:03:26.676Z,100230.03
2023-04-16T15:06:28.464Z,100238.28
2023-04-16T15:09:29.929Z,100239.25
2023-04-16T15:12:31.367Z,100243.09
2023-04-16T15:15:32.765Z,100233.72
2023-04-16T15:18:34.308Z,100235.91
2023-04-16T15:21:35.734Z,100237.34
2023-04-16T15:24:37.185Z,100233.72
2023-04-16T15:27:38.698Z,100243.09
2023-04-16T15:30:41.312Z,100238.66
2023-04-16T15:33:42.888Z,100245.72
2023-04-16T15:36:44.400Z,100239.66
2023-04-16T15:39:46.234Z,100236.78
2023-04-16T15:42:48.068Z,100237.84
2023-04-16T15:45:49.552Z,100234.78
2023-04-16T15:48:51.031Z,100236.47
2023-04-16T15:51:53.054Z,100233.16
2023-04-16T15:54:54.887Z,100240.03
2023-04-16T15:57:56.365Z,100237.41
2023-04-16T16:00:57.828Z,100236.34
2023-04-16T16:03:59.481Z,100245.31
2023-04-16T16:07:02.747Z,100253.22
2023-04-16T16:10:05.937Z,100252.66
2023-04-16T16:13:12.033Z,100270.53
2023-04-16T16:16:14.675Z,100265.75
2023-04-16T16:19:18.603Z,100261.47
2023-04-16T16:22:20.630Z,100270.41
2023-04-16T16:25:22.198Z,100266.44
2023-04-16T16:28:24.968Z,100263.13
2023-04-16T16:31:26.540Z,100263.81
2023-04-16T16:34:28.237Z,100270.00
2023-04-16T16:37:29.651Z,100269.06
2023-04-16T16:40:31.136Z,100265.75
2023-04-16T16:43:32.875Z,100271.25
2023-04-16T16:46:34.654Z,100268.22
2023-04-16T16:49:36.112Z,100264.66
2023-04-16T16:52:38.291Z,100269.59
2023-04-16T16:55:39.711Z,100272.91
2023-04-16T16:58:41.696Z,100272.91
2023-04-16T17:01:43.152Z,100271.25
2023-04-16T17:04:44.842Z,100274.28
2023-04-16T17:07:46.658Z,100275.88
2023-04-16T17:10:48.230Z,100272.22
2023-04-16T17:13:49.727Z,100275.59
2023-04-16T17:16:51.272Z,100276.47
2023-04-16T17:19:52.836Z,100274.84
2023-04-16T17:22:54.251Z,100270.66
2023-04-16T17:25:55.826Z,100270.09
2023-04-16T17:28:59.170Z,100282.00
2023-04-16T17:32:00.894Z,100278.72
2023-04-16T17:35:04.176Z,100276.84
2023-04-16T17:38:05.909Z,100283.59
2023-04-16T17:41:07.355Z,100281.94
2023-04-16T17:44:11.129Z,100283.25
2023-04-16T17:47:13.250Z,100289.66
2023-04-16T17:50:14.906Z,100287.47
2023-04-16T17:53:16.613Z,100286.94
2023-04-16T17:56:18.020Z,100285.38
2023-04-16T17:59:19.555Z,100295.78
2023-04-16T18:02:21.150Z,100294.81
2023-04-16T18:05:22.741Z,100288.06
2023-04-16T18:08:25.113Z,100296.53
2023-04-16T18:11:27.491Z,100293.78
2023-04-16T18:14:30.039Z,100292.00
2023-04-16T18:17:31.528Z,100295.47
2023-04-16T18:20:33.425Z,100296.81
2023-04-16T18:23:34.828Z,100294.47
2023-04-16T18:26:36.484Z,100298.09
2023-04-16T18:29:39.864Z,100301.41
2023-04-16T18:32:58.920Z,100307.66
2023-04-16T18:36:03.741Z,100307.84
2023-04-16T18:39:05.862Z,100307.97
2023-04-16T18:42:07.800Z,100298.59
2023-04-16T18:45:13.657Z,100304.53
2023-04-16T18:48:16.129Z,100301.22
2023-04-16T18:51:17.583Z,100302.63
2023-04-16T18:54:20.307Z,100307.56
2023-04-16T18:57:21.723Z,100311.00
2023-04-16T19:00:23.263Z,100313.09
2023-04-16T19:03:27.019Z,100308.25
2023-04-16T19:06:29.144Z,100308.50
2023-04-16T19:09:30.871Z,100306.72
2023-04-16T19:12:32.529Z,100312.53
2023-04-16T19:15:34.864Z,100312.53
2023-04-16T19:18:37.546Z,100323.41
2023-04-16T19:21:38.976Z,100315.16
2023-04-16T19:24:40.637Z,100322.91
2023-04-16T19:27:42.132Z,100313.09
2023-04-16T19:30:46.434Z,100318.84
2023-04-16T19:33:47.880Z,100322.25
2023-04-16T19:36:49.295Z,100320.53
2023-04-16T19:39:50.798Z,100324.44
2023-04-16T19:42:52.322Z,100319.38
2023-04-16T19:45:54.243Z,100319.84
2023-04-16T19:48:56.595Z,100320.59
2023-04-16T19:51:57.946Z,100325.25
2023-04-16T19:54:59.440Z,100325.66
2023-04-16T19:58:05.901Z,100330.31
2023-04-16T20:01:11.355Z,100329.25
2023-04-16T20:04:12.855Z,100329.84
2023-04-16T20:07:14.278Z,100326.84
2023-04-16T20:10:15.825Z,100329.50
2023-04-16T20:13:18.594Z,100327.41
2023-04-16T20:16:23.810Z,100329.06
2023-04-16T20:19:29.936Z,100328.88
2023-04-16T20:22:31.372Z,100319.66
2023-04-16T20:25:32.800Z,100320.94
2023-04-16T20:28:34.327Z,100322.00
2023-04-16T20:31:35.745Z,100322.34
2023-04-16T20:34:38.180Z,100321.81
2023-04-16T20:37:41.793Z,100326.53
2023-04-16T20:40:44.999Z,100322.38
2023-04-16T20:43:49.969Z,100322.34
2023-04-16T20:46:54.878Z,100314.47
2023-04-16T20:49:56.501Z,100312.94
2023-04-16T20:52:57.970Z,100317.09
2023-04-16T20:56:02.965Z,100315.66
2023-04-16T20:59:04.469Z,100309.56
2023-04-16T21:02:06.172Z,100310.75
2023-04-16T21:05:10.383Z,100311.22
2023-04-16T21:08:11.808Z,100309.59
2023-04-16T21:11:13.293Z,100310.00
2023-04-16T21:14:14.727Z,100308.13
2023-04-16T21:17:16.305Z,100305.91
2023-04-16T21:20:17.778Z,100305.91
2023-04-16T21:23:19.211Z,100306.84
2023-04-16T21:26:20.865Z,100305.06
2023-04-16T21:29:23.469Z,100304.09
2023-04-16T21:32:24.956Z,100301.34
2023-04-16T21:35:26.646Z,100292.78
2023-04-16T21:38:28.172Z,100286.59
2023-04-16T21:41:29.625Z,100290.88
2023-04-16T21:44:31.187Z,100289.59
2023-04-16T21:47:32.677Z,100291.75
2023-04-16T21:50:34.108Z,100291.69
2023-04-16T21:53:36.778Z,100289.31
2023-04-16T21:56:38.773Z,100299.81
2023-04-16T21:59:40.313Z,100293.66
2023-04-16T22:02:42.723Z,100297.09
2023-04-16T22:05:45.829Z,100295.97
2023-04-16T22:08:49.632Z,100291.84
2023-04-16T22:11:52.372Z,100289.91
2023-04-16T22:15:02.403Z,100297.22
2023-04-16T22:18:04.514Z,100297.09
2023-04-16T22:21:06.020Z,100291.03
2023-04-16T22:24:07.544Z,100287.97
2023-04-16T22:27:08.988Z,100288.25
2023-04-16T22:30:10.884Z,100285.38
2023-04-16T22:33:12.461Z,100280.84
2023-04-16T22:36:13.906Z,100288.81
2023-04-16T22:39:15.510Z,100283.59
2023-04-16T22:42:17.208Z,100289.78
2023-04-16T22:45:18.741Z,100284.00
2023-04-16T22:48:20.159Z,100286.47
2023-04-16T22:51:24.265Z,100289.50
2023-04-16T22:54:29.785Z,100278.63
2023-04-16T22:57:31.227Z,100289.34
2023-04-16T23:00:32.910Z,100280.44
2023-04-16T23:03:34.499Z,100288.84
2023-04-16T23:06:36.145Z,100285.00
2023-04-16T23:09:37.535Z,100287.56
2023-04-16T23:12:39.101Z,100277.94
2023-04-16T23:15:40.716Z,100278.75
2023-04-16T23:18:42.224Z,100271.78
2023-04-16T23:21:43.627Z,100274.44
2023-04-16T23:24:45.749Z,100275.25
2023-04-16T23:27:47.193Z,100274.31
2023-04-16T23:30:52.728Z,100276.16
2023-04-16T23:33:54.307Z,100273.41
2023-04-16T23:36:55.766Z,100272.72
2023-04-16T23:39:57.199Z,100268.53
2023-04-16T23:42:58.791Z,100266.78
2023-04-16T23:46:00.353Z,100271.59
2023-04-16T23:49:01.909Z,100273.78
2023-04-16T23:52:03.561Z,100268.41
2023-04-16T23:55:05.326Z,100266.78
2023-04-16T23:58:06.747Z,100267.31
